Highfalls, North Carolina
Current Conditions -  °F | °C
As of 4:35 AM on Sunday 23 Nov 2014 (Local Time) from K5W8 Reporting Station
Overcast Overcast  
Wind Chill: 39°   Ceiling: 1000
Heat Index: 39°   Visibility: 10mi
Dew Point: 29°   Wind: 0mph
Humidity: 67%   Direction: NA
Pressure: 30.26"   Gusts: NA
Location:  35.48°N, 79.52°W
Report Text: K5W8 230935Z AUTO 00000KT 10SM BKN010 OVC050 04/M02 A3026 RMK AO2 T00401016
Loading
Personal Weather Stations






























Interactive Weather Map New forecast layout! Learn more

10-Day Weather Forecast

Advertisements
Track Severe Weather on mobile